createdAt,value
2023-02-21T00:00:15.124Z,100658.94
2023-02-21T00:03:01.185Z,100658.81
2023-02-21T00:05:46.436Z,100668.03
2023-02-21T00:08:31.659Z,100665.75
2023-02-21T00:11:16.822Z,100665.91
2023-02-21T00:14:03.660Z,100671.50
2023-02-21T00:16:48.909Z,100669.69
2023-02-21T00:19:33.998Z,100660.00
2023-02-21T00:22:18.975Z,100656.88
2023-02-21T00:25:03.888Z,100655.00
2023-02-21T00:27:49.063Z,100665.13
2023-02-21T00:30:35.947Z,100661.25
2023-02-21T00:33:21.192Z,100655.50
2023-02-21T00:36:06.375Z,100661.75
2023-02-21T00:38:51.406Z,100662.56
2023-02-21T00:41:36.689Z,100666.59
2023-02-21T00:44:21.870Z,100650.84
2023-02-21T00:47:08.992Z,100650.31
2023-02-21T00:49:53.880Z,100651.81
2023-02-21T00:52:38.865Z,100640.63
2023-02-21T00:55:24.374Z,100649.25
2023-02-21T00:58:09.216Z,100649.69
2023-02-21T01:00:54.064Z,100641.06
2023-02-21T01:03:40.593Z,100631.06
2023-02-21T01:06:27.213Z,100635.50
2023-02-21T01:09:12.536Z,100658.78
2023-02-21T01:11:57.644Z,100632.13
2023-02-21T01:14:44.465Z,100635.94
2023-02-21T01:17:29.428Z,100636.72
2023-02-21T01:20:15.629Z,100618.06
2023-02-21T01:23:00.708Z,100617.34
2023-02-21T01:25:45.925Z,100606.22
2023-02-21T01:28:31.361Z,100614.06
2023-02-21T01:31:17.084Z,100608.50
2023-02-21T01:34:03.345Z,100600.44
2023-02-21T01:36:49.483Z,100605.81
2023-02-21T01:39:34.690Z,100602.75
2023-02-21T01:42:20.160Z,100598.56
2023-02-21T01:45:05.912Z,100602.41
2023-02-21T01:47:51.156Z,100601.31
2023-02-21T01:50:37.651Z,100606.03
2023-02-21T01:53:25.579Z,100583.81
2023-02-21T01:56:10.679Z,100582.03
2023-02-21T01:58:55.974Z,100588.00
2023-02-21T02:01:44.468Z,100594.53
2023-02-21T02:04:29.602Z,100608.44
2023-02-21T02:07:14.862Z,100595.84
2023-02-21T02:10:00.900Z,100591.22
2023-02-21T02:12:45.067Z,100592.84
2023-02-21T02:15:18.373Z,100581.19
2023-02-21T02:17:50.992Z,100577.41
2023-02-21T02:20:33.422Z,100584.78
2023-02-21T02:23:06.862Z,100561.50
2023-02-21T02:25:44.734Z,100581.19
2023-02-21T02:28:19.145Z,100569.50
2023-02-21T02:34:54.725Z,100574.56
2023-02-21T02:37:23.502Z,100576.22
2023-02-21T02:39:53.458Z,100585.47
2023-02-21T02:42:26.614Z,100560.91
2023-02-21T02:44:54.919Z,100567.03
2023-02-21T02:47:23.563Z,100559.25
2023-02-21T02:49:51.257Z,100561.13
2023-02-21T02:52:20.234Z,100565.03
2023-02-21T02:54:58.174Z,100570.38
2023-02-21T02:57:26.182Z,100571.50
2023-02-21T02:59:53.950Z,100569.94
2023-02-21T03:02:40.636Z,100574.53
2023-02-21T03:05:10.444Z,100567.44
2023-02-21T03:07:47.670Z,100564.66
2023-02-21T03:10:17.677Z,100568.19
2023-02-21T03:12:46.177Z,100570.16
2023-02-21T03:15:15.389Z,100560.13
2023-02-21T03:17:43.866Z,100559.25
2023-02-21T03:20:12.365Z,100540.28
2023-02-21T03:22:40.119Z,100556.63
2023-02-21T03:25:09.604Z,100550.41
2023-02-21T03:27:39.318Z,100549.41
2023-02-21T03:30:27.705Z,100561.47
2023-02-21T03:32:55.680Z,100548.22
2023-02-21T03:35:25.254Z,100548.38
2023-02-21T03:37:53.590Z,100546.03
2023-02-21T03:40:27.584Z,100546.25
2023-02-21T03:42:56.889Z,100546.06
2023-02-21T03:45:25.715Z,100545.09
2023-02-21T03:48:17.736Z,100566.28
2023-02-21T03:50:51.811Z,100558.63
2023-02-21T03:53:21.183Z,100553.84
2023-02-21T03:55:54.235Z,100555.91
2023-02-21T03:58:29.622Z,100545.03
2023-02-21T04:00:57.722Z,100533.91
2023-02-21T04:03:25.641Z,100545.66
2023-02-21T04:05:56.725Z,100558.63
2023-02-21T04:08:25.339Z,100578.78
2023-02-21T04:10:54.631Z,100574.09
2023-02-21T04:13:25.680Z,100566.25
2023-02-21T04:15:54.197Z,100568.50
2023-02-21T04:18:22.820Z,100580.09
2023-02-21T04:20:52.500Z,100577.09
2023-02-21T04:23:20.993Z,100581.56
2023-02-21T04:25:48.915Z,100579.44
2023-02-21T04:28:24.793Z,100576.53
2023-02-21T04:30:52.506Z,100582.13
2023-02-21T04:33:21.108Z,100595.00
2023-02-21T04:35:50.533Z,100581.53
2023-02-21T04:38:37.673Z,100581.16
2023-02-21T04:41:05.994Z,100586.56
2023-02-21T04:43:35.270Z,100577.00
2023-02-21T04:46:02.942Z,100578.53
2023-02-21T04:48:31.528Z,100582.78
2023-02-21T04:51:13.375Z,100582.00
2023-02-21T04:53:42.313Z,100581.91
2023-02-21T04:56:11.062Z,100585.16
2023-02-21T04:58:45.289Z,100583.53
2023-02-21T05:01:14.112Z,100581.66
2023-02-21T05:03:42.160Z,100581.91
2023-02-21T05:06:09.818Z,100586.91
2023-02-21T05:08:37.668Z,100603.91
2023-02-21T05:11:05.473Z,100589.13
2023-02-21T05:13:33.097Z,100597.47
2023-02-21T05:16:02.121Z,100601.47
2023-02-21T05:18:29.847Z,100584.47
2023-02-21T05:20:57.592Z,100597.88
2023-02-21T05:23:34.869Z,100596.44
2023-02-21T05:26:02.730Z,100597.97
2023-02-21T05:28:30.340Z,100596.84
2023-02-21T05:31:00.713Z,100605.38
2023-02-21T05:33:30.069Z,100602.22
2023-02-21T05:35:57.857Z,100605.94
2023-02-21T05:38:26.198Z,100599.78
2023-02-21T05:40:53.992Z,100570.38
2023-02-21T05:43:24.207Z,100603.66
2023-02-21T05:45:52.550Z,100599.16
2023-02-21T05:48:20.274Z,100603.38
2023-02-21T05:50:49.292Z,100612.97
2023-02-21T05:53:16.940Z,100606.84
2023-02-21T05:55:44.697Z,100605.00
2023-02-21T05:58:12.364Z,100616.44
2023-02-21T06:00:40.102Z,100625.44
2023-02-21T06:03:08.807Z,100624.53
2023-02-21T06:05:36.637Z,100625.59
2023-02-21T06:08:06.697Z,100633.56
2023-02-21T06:10:35.397Z,100617.31
2023-02-21T06:13:03.085Z,100641.69
2023-02-21T06:15:30.827Z,100641.38
2023-02-21T06:17:58.583Z,100654.78
2023-02-21T06:20:26.216Z,100650.47
2023-02-21T06:22:53.849Z,100654.81
2023-02-21T06:25:23.010Z,100664.03
2023-02-21T06:27:50.678Z,100655.47
2023-02-21T06:30:18.335Z,100646.59
2023-02-21T06:32:46.284Z,100676.13
2023-02-21T06:35:14.320Z,100660.16
2023-02-21T06:37:45.175Z,100663.66
2023-02-21T06:40:13.629Z,100662.84
2023-02-21T06:42:43.821Z,100664.63
2023-02-21T06:45:13.877Z,100668.22
2023-02-21T06:47:47.759Z,100670.97
2023-02-21T06:50:16.074Z,100672.94
2023-02-21T06:52:44.181Z,100682.75
2023-02-21T06:55:11.808Z,100683.38
2023-02-21T06:57:39.467Z,100684.59
2023-02-21T07:00:09.523Z,100695.19
2023-02-21T07:02:42.550Z,100711.78
2023-02-21T07:05:12.428Z,100708.28
2023-02-21T07:07:40.217Z,100719.03
2023-02-21T07:10:08.131Z,100714.47
2023-02-21T07:12:35.799Z,100733.06
2023-02-21T07:15:03.524Z,100718.69
2023-02-21T07:17:32.552Z,100734.09
2023-02-21T07:20:00.327Z,100716.47
2023-02-21T07:22:28.358Z,100735.44
2023-02-21T07:24:56.014Z,100752.50
2023-02-21T07:27:23.739Z,100755.22
2023-02-21T07:29:51.546Z,100759.44
2023-02-21T07:32:19.225Z,100762.00
2023-02-21T07:34:48.382Z,100756.78
2023-02-21T07:37:16.192Z,100760.09
2023-02-21T07:39:44.299Z,100754.56
2023-02-21T07:42:13.537Z,100770.41
2023-02-21T07:44:46.765Z,100765.06
2023-02-21T07:47:25.915Z,100759.97
2023-02-21T07:49:55.743Z,100752.22
2023-02-21T07:52:23.747Z,100773.56
2023-02-21T07:54:52.168Z,100771.81
2023-02-21T07:57:24.054Z,100775.25
2023-02-21T07:59:52.762Z,100777.56
2023-02-21T08:02:21.387Z,100788.25
2023-02-21T08:04:52.015Z,100774.44
2023-02-21T08:07:21.772Z,100777.91
2023-02-21T08:09:51.581Z,100766.50
2023-02-21T08:12:19.977Z,100783.34
2023-02-21T08:14:48.438Z,100780.22
2023-02-21T08:17:18.338Z,100779.13
2023-02-21T08:19:54.523Z,100802.41
2023-02-21T08:22:38.056Z,100808.03
2023-02-21T08:25:06.692Z,100804.91
2023-02-21T08:27:37.687Z,100802.28
2023-02-21T08:30:08.764Z,100810.81
2023-02-21T08:32:37.243Z,100807.56
2023-02-21T08:35:08.725Z,100812.13
2023-02-21T08:37:45.276Z,100807.38
2023-02-21T08:40:17.194Z,100802.19
2023-02-21T08:42:49.465Z,100806.91
2023-02-21T08:45:20.138Z,100809.47
2023-02-21T08:47:48.248Z,100801.84
2023-02-21T08:50:16.200Z,100812.91
2023-02-21T08:52:47.467Z,100809.56
2023-02-21T08:55:20.264Z,100818.81
2023-02-21T08:57:48.998Z,100824.53
2023-02-21T09:00:17.482Z,100825.88
2023-02-21T09:02:45.468Z,100818.34
2023-02-21T09:05:24.759Z,100818.47
2023-02-21T09:07:59.031Z,100829.94
2023-02-21T09:10:27.694Z,100829.66
2023-02-21T09:12:55.585Z,100838.66
2023-02-21T09:15:23.363Z,100821.22
2023-02-21T09:17:51.508Z,100840.84
2023-02-21T09:20:21.639Z,100842.53
2023-02-21T09:22:50.206Z,100828.28
2023-02-21T09:25:20.672Z,100845.09
2023-02-21T09:27:48.379Z,100847.53
2023-02-21T09:30:16.660Z,100845.28
2023-02-21T09:32:44.657Z,100852.47
2023-02-21T09:35:14.043Z,100843.75
2023-02-21T09:37:42.455Z,100844.59
2023-02-21T09:40:16.774Z,100852.09
2023-02-21T09:42:46.041Z,100851.47
2023-02-21T09:45:17.698Z,100861.66
2023-02-21T09:47:45.593Z,100861.69
2023-02-21T09:50:13.961Z,100859.38
2023-02-21T09:52:42.465Z,100858.66
2023-02-21T09:55:13.117Z,100857.94
2023-02-21T09:57:40.847Z,100856.53
2023-02-21T10:00:17.500Z,100863.13
2023-02-21T10:02:48.646Z,100867.13
2023-02-21T10:05:19.672Z,100867.50
2023-02-21T10:07:48.670Z,100864.00
2023-02-21T10:10:17.574Z,100865.53
2023-02-21T10:12:46.320Z,100862.06
2023-02-21T10:15:33.975Z,100866.38
2023-02-21T10:18:04.736Z,100864.34
2023-02-21T10:20:34.151Z,100869.94
2023-02-21T10:23:01.903Z,100868.50
2023-02-21T10:25:31.379Z,100883.91
2023-02-21T10:28:00.059Z,100886.09
2023-02-21T10:30:30.113Z,100884.09
2023-02-21T10:32:58.043Z,100873.09
2023-02-21T10:35:27.263Z,100870.59
2023-02-21T10:37:55.706Z,100874.91
2023-02-21T10:40:29.031Z,100886.75
2023-02-21T10:42:58.295Z,100883.41
2023-02-21T10:45:27.676Z,100892.66
2023-02-21T10:47:58.286Z,100892.91
2023-02-21T10:50:45.130Z,100891.19
2023-02-21T10:53:24.471Z,100891.72
2023-02-21T10:56:07.041Z,100897.00
2023-02-21T10:58:34.704Z,100888.84
2023-02-21T11:01:11.313Z,100881.59
2023-02-21T11:03:39.089Z,100896.19
2023-02-21T11:06:08.254Z,100897.31
2023-02-21T11:08:36.577Z,100890.66
2023-02-21T11:11:04.756Z,100883.53
2023-02-21T11:13:32.488Z,100910.06
2023-02-21T11:16:08.600Z,100890.91
2023-02-21T11:18:36.351Z,100879.56
2023-02-21T11:21:11.177Z,100876.41
2023-02-21T11:23:39.288Z,100900.75
2023-02-21T11:26:10.430Z,100893.63
2023-02-21T11:28:38.878Z,100865.53
2023-02-21T11:31:08.612Z,100885.47
2023-02-21T11:33:38.576Z,100899.16
2023-02-21T11:36:11.721Z,100896.09
2023-02-21T11:38:43.462Z,100888.09
2023-02-21T11:41:18.903Z,100878.31
2023-02-21T11:43:48.097Z,100901.63
2023-02-21T11:46:18.095Z,100896.50
2023-02-21T11:48:55.832Z,100885.03
2023-02-21T11:51:31.057Z,100879.25
2023-02-21T11:53:58.718Z,100875.91
2023-02-21T11:56:29.757Z,100888.44
2023-02-21T11:59:03.468Z,100885.66
2023-02-21T12:01:33.366Z,100879.56
2023-02-21T12:04:05.193Z,100888.44
2023-02-21T12:06:39.400Z,100887.44
2023-02-21T12:09:09.000Z,100895.03
2023-02-21T12:11:39.740Z,100900.13
2023-02-21T12:14:09.655Z,100912.84
2023-02-21T12:16:40.388Z,100917.97
2023-02-21T12:19:13.106Z,100906.72
2023-02-21T12:21:52.452Z,100914.72
2023-02-21T12:24:29.666Z,100898.38
2023-02-21T12:27:16.309Z,100903.78
2023-02-21T12:29:52.417Z,100912.81
2023-02-21T12:32:27.340Z,100888.50
2023-02-21T12:35:02.477Z,100897.34
2023-02-21T12:37:32.399Z,100900.59
2023-02-21T12:40:06.652Z,100903.91
2023-02-21T12:42:51.134Z,100909.06
2023-02-21T12:45:22.720Z,100914.97
2023-02-21T12:47:52.455Z,100895.00
2023-02-21T12:50:20.277Z,100906.63
2023-02-21T12:52:50.957Z,100897.28
2023-02-21T12:55:20.006Z,100895.13
2023-02-21T12:57:50.920Z,100898.53
2023-02-21T13:00:19.134Z,100899.00
2023-02-21T13:02:51.649Z,100898.22
2023-02-21T13:05:20.829Z,100897.09
2023-02-21T13:07:51.313Z,100883.28
2023-02-21T13:10:20.219Z,100899.03
2023-02-21T13:12:48.633Z,100888.63
2023-02-21T13:15:18.184Z,100882.75
2023-02-21T13:17:45.913Z,100886.38
2023-02-21T13:20:17.830Z,100878.88
2023-02-21T13:23:22.113Z,100886.72
2023-02-21T13:26:26.477Z,100879.09
2023-02-21T13:28:55.737Z,100896.16
2023-02-21T13:31:24.288Z,100869.59
2023-02-21T13:33:52.705Z,100885.78
2023-02-21T13:36:24.714Z,100884.22
2023-02-21T13:38:59.874Z,100875.88
2023-02-21T13:41:28.585Z,100886.63
2023-02-21T13:43:57.684Z,100877.63
2023-02-21T13:46:26.356Z,100860.22
2023-02-21T13:49:08.952Z,100893.13
2023-02-21T13:51:46.433Z,100871.72
2023-02-21T13:54:14.366Z,100872.84
2023-02-21T13:56:42.787Z,100876.44
2023-02-21T13:59:29.453Z,100874.38
2023-02-21T14:02:14.270Z,100880.31
2023-02-21T14:05:00.256Z,100873.69
2023-02-21T14:07:44.267Z,100859.22
2023-02-21T14:10:19.316Z,100868.88
2023-02-21T14:12:47.194Z,100869.47
2023-02-21T14:15:14.906Z,100869.47
2023-02-21T14:17:43.904Z,100877.53
2023-02-21T14:20:15.995Z,100867.06
2023-02-21T14:22:44.754Z,100879.47
2023-02-21T14:25:17.818Z,100878.63
2023-02-21T14:27:45.669Z,100873.25
2023-02-21T14:30:23.070Z,100871.56
2023-02-21T14:32:52.713Z,100885.75
2023-02-21T14:35:25.495Z,100865.22
2023-02-21T14:37:53.964Z,100884.25
2023-02-21T14:40:26.036Z,100885.16
2023-02-21T14:42:55.929Z,100888.66
2023-02-21T14:45:34.904Z,100887.50
2023-02-21T14:48:09.746Z,100877.88
2023-02-21T14:50:38.323Z,100886.19
2023-02-21T14:53:22.339Z,100884.97
2023-02-21T14:56:07.666Z,100892.25
2023-02-21T14:58:54.626Z,100893.22
2023-02-21T15:01:27.711Z,100895.50
2023-02-21T15:03:59.167Z,100896.94
2023-02-21T15:06:27.112Z,100892.38
2023-02-21T15:08:54.946Z,100892.91
2023-02-21T15:11:26.635Z,100892.00
2023-02-21T15:14:12.410Z,100894.69
2023-02-21T15:16:40.118Z,100907.03
2023-02-21T15:19:17.949Z,100905.09
2023-02-21T15:21:45.633Z,100907.03
2023-02-21T15:24:13.966Z,100906.91
2023-02-21T15:26:41.717Z,100908.53
2023-02-21T15:29:10.296Z,100908.50
2023-02-21T15:31:40.080Z,100910.25
2023-02-21T15:34:12.916Z,100919.69
2023-02-21T15:36:40.560Z,100920.97
2023-02-21T15:39:08.736Z,100926.84
2023-02-21T15:41:37.778Z,100923.16
2023-02-21T15:44:06.420Z,100930.13
2023-02-21T15:46:35.181Z,100934.03
2023-02-21T15:49:03.419Z,100926.75
2023-02-21T15:51:33.423Z,100934.84
2023-02-21T15:54:24.268Z,100934.44
2023-02-21T15:57:01.411Z,100933.03
2023-02-21T15:59:29.629Z,100940.50
2023-02-21T16:02:16.488Z,100941.28
2023-02-21T16:04:44.953Z,100937.91
2023-02-21T16:07:18.553Z,100937.19
2023-02-21T16:09:46.604Z,100944.84
2023-02-21T16:12:22.149Z,100940.31
2023-02-21T16:14:50.066Z,100951.09
2023-02-21T16:17:21.203Z,100940.59
2023-02-21T16:19:49.322Z,100950.66
2023-02-21T16:22:25.499Z,100948.72
2023-02-21T16:25:05.439Z,100946.50
2023-02-21T16:27:33.032Z,100956.63
2023-02-21T16:30:02.193Z,100953.63
2023-02-21T16:32:30.870Z,100955.22
2023-02-21T16:34:58.971Z,100955.75
2023-02-21T16:37:28.597Z,100963.69
2023-02-21T16:39:56.265Z,100969.28
2023-02-21T16:42:23.923Z,100959.38
2023-02-21T16:44:51.580Z,100968.06
2023-02-21T16:47:20.174Z,100973.09
2023-02-21T16:49:47.833Z,100970.56
2023-02-21T16:52:15.903Z,100986.81
2023-02-21T16:54:44.997Z,100983.03
2023-02-21T16:57:12.623Z,100980.22
2023-02-21T16:59:40.299Z,100979.91
2023-02-21T17:02:11.886Z,100994.91
2023-02-21T17:04:39.561Z,100997.53
2023-02-21T17:07:09.510Z,100995.41
2023-02-21T17:09:39.200Z,100989.22
2023-02-21T17:12:08.345Z,100997.84
2023-02-21T17:14:38.800Z,100998.19
2023-02-21T17:17:06.416Z,101004.69
2023-02-21T17:19:34.095Z,101003.06
2023-02-21T17:22:01.691Z,101000.88
2023-02-21T17:24:29.375Z,101006.03
2023-02-21T17:26:57.036Z,101014.66
2023-02-21T17:29:26.437Z,101012.59
2023-02-21T17:31:54.552Z,101016.28
2023-02-21T17:34:22.230Z,101021.03
2023-02-21T17:36:50.103Z,101014.50
2023-02-21T17:39:17.763Z,101028.84
2023-02-21T17:41:48.398Z,101025.59
2023-02-21T17:44:17.877Z,101027.69
2023-02-21T17:46:49.355Z,101023.72
2023-02-21T17:49:17.530Z,101025.94
2023-02-21T17:51:46.975Z,101033.09
2023-02-21T17:54:14.797Z,101034.34
2023-02-21T17:56:42.469Z,101046.22
2023-02-21T17:59:10.102Z,101046.88
2023-02-21T18:01:37.792Z,101050.13
2023-02-21T18:04:06.937Z,101042.19
2023-02-21T18:06:34.778Z,101046.13
2023-02-21T18:09:02.956Z,101047.22
2023-02-21T18:11:30.648Z,101051.47
2023-02-21T18:13:58.684Z,101045.66
2023-02-21T18:16:26.373Z,101052.59
2023-02-21T18:18:54.071Z,101053.66
2023-02-21T18:21:23.244Z,101049.75
2023-02-21T18:23:51.977Z,101052.47
2023-02-21T18:26:19.813Z,101048.22
2023-02-21T18:28:47.448Z,101052.19
2023-02-21T18:31:16.479Z,101056.69
2023-02-21T18:33:44.437Z,101059.63
2023-02-21T18:36:12.103Z,101061.97
2023-02-21T18:38:41.654Z,101066.97
2023-02-21T18:41:12.503Z,101069.78
2023-02-21T18:43:40.655Z,101061.69
2023-02-21T18:46:10.228Z,101062.63
2023-02-21T18:48:38.196Z,101058.44
2023-02-21T18:51:06.287Z,101064.16
2023-02-21T18:53:34.014Z,101074.19
2023-02-21T18:56:04.657Z,101071.91
2023-02-21T18:58:33.841Z,101061.94
2023-02-21T19:01:01.628Z,101066.72
2023-02-21T19:03:29.283Z,101063.22
2023-02-21T19:05:56.967Z,101072.69
2023-02-21T19:08:24.574Z,101068.59
2023-02-21T19:10:53.796Z,101068.06
2023-02-21T19:13:22.750Z,101066.34
2023-02-21T19:15:50.397Z,101073.00
2023-02-21T19:18:18.017Z,101075.25
2023-02-21T19:20:45.678Z,101080.44
2023-02-21T19:23:15.754Z,101084.09
2023-02-21T19:25:43.382Z,101085.81
2023-02-21T19:28:11.050Z,101083.34
2023-02-21T19:30:40.207Z,101092.81
2023-02-21T19:33:08.324Z,101094.50
2023-02-21T19:35:36.173Z,101094.88
2023-02-21T19:38:04.722Z,101097.84
2023-02-21T19:40:32.394Z,101104.16
2023-02-21T19:43:00.011Z,101106.88
2023-02-21T19:48:06.901Z,101103.44
2023-02-21T19:50:36.066Z,101115.06
2023-02-21T19:53:03.814Z,101115.03
2023-02-21T19:55:31.486Z,101101.94
2023-02-21T19:57:59.142Z,101107.22
2023-02-21T20:00:27.308Z,101119.53
2023-02-21T20:02:55.314Z,101110.59
2023-02-21T20:05:24.301Z,101119.47
2023-02-21T20:07:51.999Z,101115.81
2023-02-21T20:10:25.124Z,101112.38
2023-02-21T20:12:52.761Z,101121.69
2023-02-21T20:15:20.380Z,101114.38
2023-02-21T20:17:48.131Z,101110.16
2023-02-21T20:20:16.016Z,101111.47
2023-02-21T20:22:45.049Z,101121.59
2023-02-21T20:25:12.700Z,101130.44
2023-02-21T20:27:41.811Z,101125.59
2023-02-21T20:30:10.160Z,101127.81
2023-02-21T20:32:37.896Z,101123.53
2023-02-21T20:35:06.786Z,101122.28
2023-02-21T20:37:35.370Z,101129.53
2023-02-21T20:40:05.781Z,101129.97
2023-02-21T20:42:33.506Z,101128.09
2023-02-21T20:45:01.893Z,101132.41
2023-02-21T20:47:29.687Z,101127.91
2023-02-21T20:49:57.347Z,101140.09
2023-02-21T20:52:24.971Z,101141.22
2023-02-21T20:54:52.845Z,101133.84
2023-02-21T20:57:21.861Z,101138.03
2023-02-21T20:59:49.598Z,101145.16
2023-02-21T21:02:17.790Z,101135.75
2023-02-21T21:04:47.734Z,101144.28
2023-02-21T21:07:19.595Z,101138.72
2023-02-21T21:09:47.470Z,101145.78
2023-02-21T21:12:17.212Z,101151.81
2023-02-21T21:14:47.307Z,101148.09
2023-02-21T21:17:16.572Z,101146.72
2023-02-21T21:19:44.972Z,101152.78
2023-02-21T21:22:13.717Z,101156.88
2023-02-21T21:24:41.698Z,101156.44
2023-02-21T21:27:10.864Z,101155.47
2023-02-21T21:29:38.881Z,101160.84
2023-02-21T21:32:09.329Z,101166.47
2023-02-21T21:34:38.895Z,101161.50
2023-02-21T21:37:07.513Z,101162.91
2023-02-21T21:39:37.421Z,101152.72
2023-02-21T21:42:08.689Z,101159.31
2023-02-21T21:44:37.070Z,101153.28
2023-02-21T21:47:04.715Z,101158.16
2023-02-21T21:49:34.936Z,101166.97
2023-02-21T21:52:04.414Z,101162.38
2023-02-21T21:54:35.958Z,101157.97
2023-02-21T21:57:05.169Z,101162.34
2023-02-21T21:59:33.447Z,101165.22
2023-02-21T22:02:01.029Z,101164.34
2023-02-21T22:04:28.652Z,101162.50
2023-02-21T22:06:57.730Z,101163.22
2023-02-21T22:09:25.622Z,101167.63
2023-02-21T22:11:53.605Z,101165.28
2023-02-21T22:14:22.837Z,101158.28
2023-02-21T22:16:51.394Z,101162.13
2023-02-21T22:19:19.437Z,101160.84
2023-02-21T22:21:47.558Z,101158.31
2023-02-21T22:24:20.675Z,101157.28
2023-02-21T22:26:48.403Z,101162.66
2023-02-21T22:29:16.802Z,101167.50
2023-02-21T22:31:44.578Z,101169.97
2023-02-21T22:34:23.115Z,101169.06
2023-02-21T22:36:51.181Z,101169.09
2023-02-21T22:39:20.334Z,101179.13
2023-02-21T22:41:49.125Z,101174.25
2023-02-21T22:44:17.305Z,101174.91
2023-02-21T22:46:45.640Z,101176.50
2023-02-21T22:49:16.637Z,101177.06
2023-02-21T22:51:44.412Z,101168.53
2023-02-21T22:54:14.715Z,101179.16
2023-02-21T22:56:50.955Z,101169.69
2023-02-21T22:59:19.625Z,101171.41
2023-02-21T23:01:47.315Z,101172.72
2023-02-21T23:04:25.068Z,101177.84
2023-02-21T23:06:53.812Z,101165.00
2023-02-21T23:09:21.445Z,101166.16
2023-02-21T23:11:51.396Z,101161.59
2023-02-21T23:14:19.288Z,101159.44
2023-02-21T23:16:47.684Z,101162.66
2023-02-21T23:19:16.506Z,101157.13
2023-02-21T23:21:47.754Z,101165.91
2023-02-21T23:24:15.887Z,101160.47
2023-02-21T23:26:45.033Z,101163.16
2023-02-21T23:29:14.417Z,101166.84
2023-02-21T23:31:42.241Z,101156.25
2023-02-21T23:34:11.514Z,101160.31
2023-02-21T23:36:39.576Z,101159.38
2023-02-21T23:39:09.080Z,101159.38
2023-02-21T23:41:38.871Z,101159.78
2023-02-21T23:44:07.541Z,101157.22
2023-02-21T23:46:39.913Z,101160.84
2023-02-21T23:49:10.718Z,101158.84
2023-02-21T23:51:38.426Z,101164.19
2023-02-21T23:54:07.065Z,101161.00
2023-02-21T23:56:35.432Z,101161.16
2023-02-21T23:59:05.886Z,101160.81
